Time;durP1;ratioP1;P1;durP2;ratioP2;P2;SDS_P1;SDS_P2;PMS_P1;PMS_P2;Temp;Humidity;BMP_temperature;BMP_pressure;BME280_temperature;BME280_humidity;BME280_pressure;Samples;Min_cycle;Max_cycle;Signal;HPM_P1;HPM_P2
2021/03/20 00:01:36;;;;;;;13.13;9.60;;;;;;;8.83;47.73;101507.69;5109132;28;20448;-68
2021/03/20 00:04:02;;;;;;;12.73;9.57;;;;;;;8.82;47.81;101510.34;5103796;28;20040;-65
2021/03/20 00:06:33;;;;;;;13.10;9.02;;;;;;;8.79;47.90;101516.56;5096248;28;20473;-65
2021/03/20 00:09:04;;;;;;;16.60;9.52;;;;;;;8.74;47.93;101509.81;5108802;28;20050;-65
2021/03/20 00:11:30;;;;;;;13.68;9.85;;;;;;;8.66;47.87;101516.16;5108651;28;20040;-65
2021/03/20 00:13:58;;;;;;;12.80;9.95;;;;;;;8.63;47.77;101515.41;5108357;28;20048;-66
2021/03/20 00:16:24;;;;;;;12.25;9.85;;;;;;;8.60;47.87;101505.91;5109790;28;20070;-67
2021/03/20 00:18:51;;;;;;;13.45;9.85;;;;;;;8.59;47.91;101509.44;5112373;28;20043;-66
2021/03/20 00:21:18;;;;;;;15.07;10.18;;;;;;;8.55;47.93;101510.44;5112282;28;20043;-65
2021/03/20 00:23:44;;;;;;;14.43;10.05;;;;;;;8.49;47.85;101500.19;5111815;28;20062;-67
2021/03/20 00:26:11;;;;;;;14.02;10.55;;;;;;;8.45;47.90;101507.25;5112297;28;20176;-65
2021/03/20 00:28:37;;;;;;;16.67;11.23;;;;;;;8.43;48.00;101503.88;5112181;28;20388;-66
2021/03/20 00:31:06;;;;;;;15.13;10.57;;;;;;;8.39;48.07;101502.25;5111989;28;20046;-65
2021/03/20 00:33:33;;;;;;;13.50;10.75;;;;;;;8.38;48.17;101502.31;5112113;28;20087;-65
2021/03/20 00:35:59;;;;;;;15.27;10.35;;;;;;;8.34;48.25;101494.59;5112924;28;20123;-66
2021/03/20 00:38:27;;;;;;;16.30;10.57;;;;;;;8.32;48.21;101493.78;5111830;28;20122;-69
2021/03/20 00:40:55;;;;;;;17.58;11.13;;;;;;;8.31;48.18;101501.69;5111899;28;20047;-65
2021/03/20 00:43:21;;;;;;;14.57;10.65;;;;;;;8.30;48.37;101497.34;5110619;28;20043;-65
2021/03/20 00:45:48;;;;;;;14.93;11.00;;;;;;;8.30;48.11;101486.88;5112119;28;20066;-65
2021/03/20 00:48:19;;;;;;;14.10;10.90;;;;;;;8.28;48.35;101494.78;5111664;28;20697;-65
2021/03/20 00:50:46;;;;;;;14.73;10.60;;;;;;;8.26;48.33;101503.59;5113252;28;20052;-65
2021/03/20 00:53:12;;;;;;;12.73;9.75;;;;;;;8.20;48.32;101494.19;5112115;28;20450;-65
2021/03/20 00:55:38;;;;;;;16.60;10.55;;;;;;;8.17;48.41;101492.53;5111863;28;20419;-65
2021/03/20 00:58:32;;;;;;;14.27;10.70;;;;;;;8.14;47.99;101492.66;5111792;28;20039;-65
2021/03/20 01:01:08;;;;;;;17.98;11.02;;;;;;;8.12;48.19;101488.38;5111893;28;20404;-71
2021/03/20 01:03:38;;;;;;;18.48;10.57;;;;;;;8.10;48.32;101492.81;5111861;28;20051;-65
2021/03/20 01:06:18;;;;;;;14.88;10.02;;;;;;;8.08;48.36;101494.63;5111685;28;20043;-65
2021/03/20 01:08:48;;;;;;;13.00;9.85;;;;;;;8.04;48.41;101496.50;5111325;28;20520;-65
2021/03/20 01:11:15;;;;;;;15.35;11.23;;;;;;;8.03;48.43;101491.34;5111487;28;20441;-64
2021/03/20 01:13:42;;;;;;;16.10;10.00;;;;;;;8.01;48.43;101488.75;5112633;28;20047;-65
2021/03/20 01:16:09;;;;;;;14.77;9.70;;;;;;;7.99;48.37;101498.41;5115496;28;20047;-65
2021/03/20 01:18:36;;;;;;;15.68;10.93;;;;;;;7.97;48.33;101495.88;5115497;27;20096;-64
2021/03/20 01:21:03;;;;;;;13.15;9.95;;;;;;;7.97;48.30;101492.38;5115392;28;20097;-65
2021/03/20 01:23:29;;;;;;;12.75;9.65;;;;;;;7.93;48.44;101486.38;5115244;28;20047;-65
2021/03/20 01:25:55;;;;;;;15.65;10.02;;;;;;;7.90;48.54;101489.13;5115352;27;20048;-68
2021/03/20 01:28:26;;;;;;;14.15;10.35;;;;;;;7.88;48.19;101480.47;5115141;28;20054;-68
2021/03/20 01:30:53;;;;;;;14.23;10.13;;;;;;;7.84;48.07;101492.78;5115246;28;20051;-65
2021/03/20 01:33:19;;;;;;;16.35;10.50;;;;;;;7.81;48.09;101481.59;5114935;28;20077;-66
2021/03/20 01:35:46;;;;;;;15.90;10.07;;;;;;;7.78;47.91;101479.06;5115299;28;20048;-64
2021/03/20 01:38:13;;;;;;;16.42;10.27;;;;;;;7.76;47.99;101473.91;5104382;28;20122;-65
2021/03/20 01:40:45;;;;;;;16.05;11.07;;;;;;;7.72;48.01;101466.22;5114999;28;20104;-67
2021/03/20 01:43:14;;;;;;;14.07;9.70;;;;;;;7.68;47.97;101473.28;5114718;28;20054;-65
2021/03/20 01:45:41;;;;;;;17.75;10.80;;;;;;;7.66;47.95;101467.28;5114828;28;20484;-70
2021/03/20 01:48:14;;;;;;;18.73;10.45;;;;;;;7.64;48.16;101463.84;5114606;28;20039;-65
2021/03/20 01:50:50;;;;;;;18.20;10.18;;;;;;;7.63;48.16;101463.00;5114662;28;20402;-70
2021/03/20 01:53:39;;;;;;;16.17;10.07;;;;;;;7.62;48.14;101465.69;5114670;27;20077;-65
2021/03/20 01:56:09;;;;;;;17.45;11.00;;;;;;;7.59;48.14;101460.53;5114817;28;20050;-65
2021/03/20 01:58:38;;;;;;;15.63;10.02;;;;;;;7.57;48.13;101454.50;5114476;28;20052;-65
2021/03/20 02:01:12;;;;;;;16.33;10.88;;;;;;;7.54;47.95;101454.59;5114557;28;20039;-65
2021/03/20 02:03:39;;;;;;;14.95;10.27;;;;;;;7.51;47.92;101458.16;5114585;28;20139;-65
2021/03/20 02:06:09;;;;;;;16.55;10.63;;;;;;;7.47;47.85;101448.75;5114638;28;20126;-67
2021/03/20 02:08:41;;;;;;;15.07;10.52;;;;;;;7.43;47.80;101445.38;5114597;28;20047;-65
2021/03/20 02:11:26;;;;;;;13.73;10.23;;;;;;;7.42;48.11;101448.03;5124509;27;20039;-65
2021/03/20 02:13:59;;;;;;;16.77;10.48;;;;;;;7.40;48.18;101442.00;5114140;28;20514;-65
2021/03/20 02:16:38;;;;;;;14.77;10.07;;;;;;;7.37;48.20;101436.88;5112962;28;20442;-65
2021/03/20 02:19:31;;;;;;;17.98;10.77;;;;;;;7.36;48.39;101443.84;5114433;28;20075;-65
2021/03/20 02:22:03;;;;;;;13.70;10.48;;;;;;;7.35;48.65;101442.13;5103431;28;20040;-65
2021/03/20 02:25:00;;;;;;;16.15;10.40;;;;;;;7.33;48.86;101457.00;5113844;28;20047;-65
2021/03/20 02:27:48;;;;;;;14.13;10.85;;;;;;;7.30;48.76;101450.13;5114012;28;20418;-70
2021/03/20 02:30:42;;;;;;;16.08;10.95;;;;;;;7.29;48.93;101442.34;5101456;28;20048;-65
2021/03/20 02:33:32;;;;;;;16.33;11.40;;;;;;;7.30;49.26;101439.69;5113777;28;20043;-65
2021/03/20 02:36:23;;;;;;;14.73;10.60;;;;;;;7.27;49.24;101442.38;5114023;27;20043;-65
2021/03/20 02:39:07;;;;;;;16.65;11.00;;;;;;;7.26;49.23;101443.31;5094999;28;20043;-65
2021/03/20 02:41:47;;;;;;;14.95;11.20;;;;;;;7.24;49.10;101442.50;5110212;28;20466;-65
2021/03/20 02:44:31;;;;;;;13.80;9.60;;;;;;;7.23;49.15;101440.78;5113829;28;20450;-64
2021/03/20 02:47:03;;;;;;;11.75;9.85;;;;;;;7.22;49.19;101435.59;5113503;28;20043;-65
2021/03/20 02:49:40;;;;;;;15.93;10.50;;;;;;;7.21;49.22;101434.72;5113484;28;20051;-64
2021/03/20 02:52:15;;;;;;;16.30;11.57;;;;;;;7.21;49.58;101423.44;5113547;28;20054;-65
2021/03/20 02:55:10;;;;;;;16.02;11.40;;;;;;;7.22;49.73;101428.63;5113568;28;20055;-65
2021/03/20 02:57:58;;;;;;;16.42;10.57;;;;;;;7.21;49.60;101433.91;5111078;28;20509;-64
2021/03/20 03:00:30;;;;;;;15.98;10.25;;;;;;;7.20;50.00;101430.44;5113391;28;20040;-70
2021/03/20 03:02:57;;;;;;;15.95;10.68;;;;;;;7.19;49.75;101434.78;5113535;28;20081;-70
2021/03/20 03:05:28;;;;;;;16.40;11.02;;;;;;;7.14;49.56;101433.25;5113322;28;20589;-64
2021/03/20 03:08:09;;;;;;;16.17;11.88;;;;;;;7.07;49.36;101427.34;5104022;28;20483;-65
2021/03/20 03:11:01;;;;;;;14.35;11.15;;;;;;;6.99;49.28;101435.41;5113214;28;20043;-65
2021/03/20 03:13:36;;;;;;;17.13;11.70;;;;;;;6.95;49.10;101435.56;5113141;28;20449;-64
2021/03/20 03:16:11;;;;;;;18.05;11.43;;;;;;;6.93;49.35;101435.63;5113357;28;20123;-65
2021/03/20 03:18:43;;;;;;;20.25;11.70;;;;;;;6.93;49.42;101439.97;5113127;28;20131;-64
2021/03/20 03:21:11;;;;;;;18.75;10.77;;;;;;;6.91;49.58;101433.91;5112966;28;20051;-65
2021/03/20 03:23:40;;;;;;;17.00;11.38;;;;;;;6.89;49.67;101439.19;5113234;28;20502;-65
2021/03/20 03:26:12;;;;;;;16.05;10.55;;;;;;;6.86;49.76;101440.13;5113038;28;20410;-66
2021/03/20 03:28:43;;;;;;;15.60;10.57;;;;;;;6.85;50.11;101442.81;5113191;28;20047;-65
2021/03/20 03:31:27;;;;;;;13.32;10.38;;;;;;;6.84;50.13;101444.56;5111953;28;20396;-65
2021/03/20 03:34:02;;;;;;;18.65;11.68;;;;;;;6.82;50.26;101443.75;5102434;28;20052;-70
2021/03/20 03:36:37;;;;;;;16.95;11.30;;;;;;;6.81;50.47;101454.22;5112294;28;20130;-66
2021/03/20 03:39:23;;;;;;;23.13;12.55;;;;;;;6.78;50.67;101449.97;5112889;28;20043;-64
2021/03/20 03:41:50;;;;;;;18.60;11.10;;;;;;;6.78;50.85;101443.88;5071346;27;20047;-65
2021/03/20 03:44:16;;;;;;;16.02;11.18;;;;;;;6.77;50.78;101452.63;5112973;28;20097;-67
2021/03/20 03:46:46;;;;;;;15.60;10.80;;;;;;;6.74;51.00;101443.09;5112628;28;20040;-65
2021/03/20 03:49:23;;;;;;;19.40;10.52;;;;;;;6.70;50.86;101442.38;5112248;28;20052;-65
2021/03/20 03:51:57;;;;;;;16.20;11.40;;;;;;;6.67;50.72;101447.66;5112323;28;20090;-64
2021/03/20 03:54:28;;;;;;;12.60;9.50;;;;;;;6.62;50.23;101452.16;5112425;28;20047;-71
2021/03/20 03:57:13;;;;;;;15.60;10.90;;;;;;;6.59;50.20;101448.78;5112532;28;20445;-64
2021/03/20 04:00:13;;;;;;;18.05;11.00;;;;;;;6.57;50.00;101448.81;5099570;28;20406;-66
2021/03/20 04:03:07;;;;;;;17.05;10.32;;;;;;;6.55;50.07;101453.22;5094705;28;20052;-66
2021/03/20 04:06:11;;;;;;;15.45;10.82;;;;;;;6.51;50.05;101451.59;5108949;28;20044;-64
2021/03/20 04:08:51;;;;;;;19.25;10.13;;;;;;;6.47;50.09;101457.81;5109084;28;20066;-65
2021/03/20 04:11:24;;;;;;;18.40;11.13;;;;;;;6.44;50.00;101456.13;5109077;28;20094;-64
2021/03/20 04:14:12;;;;;;;13.05;9.75;;;;;;;6.37;49.88;101463.28;5109211;28;20055;-67
2021/03/20 04:17:02;;;;;;;16.42;11.25;;;;;;;6.26;50.24;101467.94;5096128;28;20047;-65
2021/03/20 04:19:47;;;;;;;16.75;11.32;;;;;;;6.12;50.44;101470.03;5108851;28;20044;-69
2021/03/20 04:22:31;;;;;;;16.52;11.00;;;;;;;6.09;50.68;101470.13;5109245;28;20050;-64
2021/03/20 04:25:07;;;;;;;18.20;10.60;;;;;;;6.03;50.79;101465.91;5109078;28;20043;-64
2021/03/20 04:27:40;;;;;;;16.08;10.73;;;;;;;5.97;50.81;101476.47;5108943;28;20065;-66
2021/03/20 04:30:13;;;;;;;21.17;11.70;;;;;;;5.95;51.09;101478.25;5109969;28;20051;-64
2021/03/20 04:32:47;;;;;;;19.88;11.75;;;;;;;5.98;51.07;101476.47;5108827;28;20627;-65
2021/03/20 04:35:44;;;;;;;19.90;11.73;;;;;;;6.00;51.12;101479.03;5109247;28;20138;-65
2021/03/20 04:38:12;;;;;;;16.95;10.98;;;;;;;6.04;51.27;101483.25;5102075;28;20055;-70
2021/03/20 04:40:55;;;;;;;16.50;11.15;;;;;;;6.08;51.29;101482.28;5108801;28;20492;-69
2021/03/20 04:43:25;;;;;;;20.13;11.25;;;;;;;6.08;51.45;101479.66;5108732;28;20418;-64
2021/03/20 04:46:01;;;;;;;16.65;11.38;;;;;;;6.09;51.29;101485.75;5109302;28;20044;-66
2021/03/20 04:48:34;;;;;;;17.17;11.48;;;;;;;6.09;51.47;101484.00;5109668;28;20054;-65
2021/03/20 04:51:08;;;;;;;20.58;10.98;;;;;;;6.08;51.35;101482.28;5112373;28;20109;-65
2021/03/20 04:53:35;;;;;;;21.95;11.82;;;;;;;6.07;51.21;101483.19;5112384;28;20047;-64
2021/03/20 04:56:08;;;;;;;22.85;12.75;;;;;;;6.03;51.29;101482.41;5112566;28;20047;-65
2021/03/20 04:58:50;;;;;;;17.55;11.48;;;;;;;6.01;51.34;101481.59;5107681;28;20043;-64
2021/03/20 05:01:27;;;;;;;15.75;11.52;;;;;;;6.00;51.35;101487.69;5099402;28;20044;-64
2021/03/20 05:04:24;;;;;;;16.38;11.00;;;;;;;6.01;51.30;101484.19;5112697;28;20051;-64
2021/03/20 05:06:51;;;;;;;17.10;11.87;;;;;;;6.00;51.59;101487.69;5112569;28;20048;-64
2021/03/20 05:09:26;;;;;;;17.95;12.25;;;;;;;5.99;51.68;101483.41;5112194;28;20039;-65
2021/03/20 05:12:10;;;;;;;20.38;11.95;;;;;;;6.00;51.92;101487.69;5111979;28;20046;-69
2021/03/20 05:14:40;;;;;;;19.75;10.95;;;;;;;5.97;51.99;101492.97;5108609;28;20127;-65
2021/03/20 05:17:20;;;;;;;18.35;12.48;;;;;;;5.95;51.87;101486.91;5112490;28;20051;-65
2021/03/20 05:19:46;;;;;;;16.83;11.43;;;;;;;5.94;51.92;101495.66;5111964;28;20055;-65
2021/03/20 05:22:26;;;;;;;20.20;11.65;;;;;;;5.93;51.87;101482.63;5112222;28;20047;-70
2021/03/20 05:24:54;;;;;;;20.42;11.77;;;;;;;5.92;52.03;101484.41;5112145;28;20040;-70
2021/03/20 05:27:24;;;;;;;20.80;12.00;;;;;;;5.92;51.95;101487.00;5112066;28;20047;-65
2021/03/20 05:29:51;;;;;;;19.50;12.27;;;;;;;5.92;51.80;101486.13;5112179;28;20152;-64
2021/03/20 05:32:25;;;;;;;19.40;11.13;;;;;;;5.89;51.83;101487.06;5111823;28;20075;-64
2021/03/20 05:34:53;;;;;;;22.65;11.63;;;;;;;5.87;51.53;101484.50;5112019;28;20044;-64
2021/03/20 05:37:26;;;;;;;22.08;12.95;;;;;;;5.85;51.27;101491.53;5112272;28;20268;-66
2021/03/20 05:39:52;;;;;;;18.10;12.35;;;;;;;5.87;51.39;101488.88;5111944;28;20048;-64
2021/03/20 05:42:55;;;;;;;16.58;12.05;;;;;;;5.88;51.40;101488.00;5111912;28;20139;-65
2021/03/20 05:45:47;;;;;;;21.45;11.80;;;;;;;5.91;51.68;101497.47;5111477;28;20055;-65
2021/03/20 05:48:28;;;;;;;22.00;12.13;;;;;;;5.92;51.75;101494.81;5110350;28;20050;-64
2021/03/20 05:51:19;;;;;;;22.10;12.10;;;;;;;5.98;52.21;101496.41;5111625;28;20122;-70
2021/03/20 05:54:14;;;;;;;14.52;11.23;;;;;;;6.00;52.27;101497.25;5111569;28;20403;-65
2021/03/20 05:56:52;;;;;;;18.73;12.20;;;;;;;6.01;52.10;101502.44;5110417;28;20514;-64
2021/03/20 05:59:31;;;;;;;16.33;10.95;;;;;;;6.00;52.14;101494.66;5110576;28;20047;-65
2021/03/20 06:02:24;;;;;;;16.17;12.18;;;;;;;6.01;52.36;101499.81;5110962;28;20044;-65
2021/03/20 06:05:30;;;;;;;18.38;12.43;;;;;;;6.03;52.43;101508.47;5091233;28;20060;-65
2021/03/20 06:07:59;;;;;;;16.85;12.05;;;;;;;6.06;52.78;101502.31;5088011;28;20040;-65
2021/03/20 06:10:53;;;;;;;16.92;12.50;;;;;;;6.09;52.68;101511.81;5110954;28;20482;-64
2021/03/20 06:13:43;;;;;;;20.65;12.65;;;;;;;6.11;53.04;101513.47;5099355;28;20051;-65
2021/03/20 06:16:27;;;;;;;20.20;13.35;;;;;;;6.14;53.00;101513.38;5111032;28;20054;-65
2021/03/20 06:19:22;;;;;;;21.00;12.38;;;;;;;6.13;53.25;101521.25;5111452;28;20058;-65
2021/03/20 06:22:06;;;;;;;18.40;12.43;;;;;;;6.13;53.44;101524.72;5098852;28;20130;-66
2021/03/20 06:24:51;;;;;;;20.30;12.90;;;;;;;6.16;53.65;101527.25;5110569;28;20389;-64
2021/03/20 06:27:28;;;;;;;20.60;13.13;;;;;;;6.16;53.89;101519.44;5110832;28;20047;-65
2021/03/20 06:30:18;;;;;;;22.90;13.55;;;;;;;6.19;53.96;101524.56;5110908;28;20127;-65
2021/03/20 06:32:47;;;;;;;18.45;12.77;;;;;;;6.25;54.14;101526.16;5110524;28;20058;-64
2021/03/20 06:35:13;;;;;;;20.25;12.90;;;;;;;6.29;54.36;101530.38;5110087;28;20043;-65
2021/03/20 06:37:46;;;;;;;20.88;12.43;;;;;;;6.31;54.57;101531.22;5118120;27;20385;-64
2021/03/20 06:40:21;;;;;;;20.85;12.73;;;;;;;6.35;54.71;101529.38;5110514;28;20043;-65
2021/03/20 06:42:48;;;;;;;21.25;12.95;;;;;;;6.39;54.73;101533.63;5110484;28;20055;-66
2021/03/20 06:45:20;;;;;;;20.60;13.18;;;;;;;6.44;54.88;101534.34;5095983;28;20052;-65
2021/03/20 06:47:50;;;;;;;19.40;12.07;;;;;;;6.52;54.82;101536.75;5110352;28;20552;-65
2021/03/20 06:50:24;;;;;;;17.02;12.45;;;;;;;6.59;54.77;101529.59;5109985;28;20059;-65
2021/03/20 06:52:53;;;;;;;17.63;10.90;;;;;;;6.65;54.55;101539.88;5110550;28;20511;-65
2021/03/20 06:55:24;;;;;;;16.08;11.10;;;;;;;6.75;54.20;101538.72;5110498;28;20044;-65
2021/03/20 06:57:50;;;;;;;18.00;11.93;;;;;;;6.85;54.00;101542.78;5110206;28;20048;-66
2021/03/20 07:00:34;;;;;;;18.23;11.82;;;;;;;6.92;53.82;101545.22;5115915;27;20074;-65
2021/03/20 07:03:39;;;;;;;15.55;10.57;;;;;;;6.98;53.74;101543.31;5097102;28;20408;-65
2021/03/20 07:06:29;;;;;;;15.52;11.13;;;;;;;7.07;53.42;101542.16;5109949;28;20040;-64
2021/03/20 07:09:01;;;;;;;15.50;11.30;;;;;;;7.25;53.21;101551.22;5110466;28;20047;-64
2021/03/20 07:11:31;;;;;;;20.00;11.45;;;;;;;7.36;52.97;101548.28;5095864;28;20047;-65
2021/03/20 07:14:32;;;;;;;20.27;11.68;;;;;;;7.52;52.21;101546.06;5109807;28;20047;-65
2021/03/20 07:17:02;;;;;;;22.75;13.32;;;;;;;7.59;51.78;101552.81;5110630;27;20122;-65
2021/03/20 07:19:28;;;;;;;23.23;13.50;;;;;;;7.61;51.40;101551.00;5109715;28;20049;-64
2021/03/20 07:21:57;;;;;;;21.80;12.15;;;;;;;7.66;51.12;101546.47;5109701;28;20512;-66
2021/03/20 07:24:37;;;;;;;16.73;10.15;;;;;;;7.84;50.90;101550.25;5109550;28;20054;-64
2021/03/20 07:27:19;;;;;;;12.80;7.80;;;;;;;8.03;50.18;101554.06;5109956;28;20047;-64
2021/03/20 07:29:52;;;;;;;12.65;8.25;;;;;;;8.23;49.29;101553.38;5109483;28;20088;-70
2021/03/20 07:32:24;;;;;;;14.02;8.43;;;;;;;8.37;48.43;101551.16;5109472;28;20054;-69
2021/03/20 07:34:55;;;;;;;10.35;7.82;;;;;;;8.47;48.18;101549.97;5107129;28;20078;-71
2021/03/20 07:37:25;;;;;;;11.38;8.32;;;;;;;8.60;47.99;101552.16;5095729;28;20036;-70
2021/03/20 07:39:57;;;;;;;12.02;8.40;;;;;;;8.71;47.53;101560.47;5105359;28;20044;-69
2021/03/20 07:42:41;;;;;;;12.27;7.95;;;;;;;8.83;47.62;101556.56;5088885;28;20055;-70
2021/03/20 07:45:17;;;;;;;10.73;7.47;;;;;;;8.94;47.37;101564.03;5110127;27;20042;-65
2021/03/20 07:47:59;;;;;;;11.18;6.63;;;;;;;9.03;46.90;101563.69;5108993;28;20048;-69
2021/03/20 07:50:27;;;;;;;9.27;6.40;;;;;;;9.11;46.63;101566.84;5069004;28;20058;-71
2021/03/20 07:52:53;;;;;;;11.57;7.00;;;;;;;9.20;46.36;101560.44;5068824;28;20052;-70
2021/03/20 07:55:22;;;;;;;7.78;5.57;;;;;;;9.30;46.28;101563.56;5069139;28;20041;-69
2021/03/20 07:57:52;;;;;;;12.68;6.53;;;;;;;9.40;46.10;101566.69;5068616;28;20040;-69
2021/03/20 08:00:46;;;;;;;11.48;6.65;;;;;;;9.51;45.85;101567.13;5056088;28;20041;-69
2021/03/20 08:03:24;;;;;;;9.75;6.85;;;;;;;9.61;45.68;101564.97;5059165;28;20045;-70
2021/03/20 08:05:50;;;;;;;11.82;7.80;;;;;;;9.69;45.15;101576.03;5052884;28;20077;-69
2021/03/20 08:08:27;;;;;;;10.50;8.00;;;;;;;9.79;45.06;101566.88;5057393;28;20451;-69
2021/03/20 08:10:57;;;;;;;;;;;;;;;9.90;44.90;101573.47;5057469;28;20045;-66
2021/03/20 08:13:49;;;;;;;10.13;7.50;;;;;;;10.00;44.35;101573.94;5068165;28;19920;-67
2021/03/20 08:16:18;;;;;;;13.45;8.60;;;;;;;10.07;44.00;101568.38;5068544;28;20052;-66
2021/03/20 08:18:47;;;;;;;14.93;9.88;;;;;;;10.17;43.99;101568.00;5068529;28;20554;-66
2021/03/20 08:21:13;;;;;;;14.77;9.57;;;;;;;10.26;44.18;101572.88;5068404;28;20036;-67
2021/03/20 08:23:42;;;;;;;13.80;7.93;;;;;;;10.35;44.23;101580.34;5071446;28;20045;-65
2021/03/20 08:26:27;;;;;;;16.15;8.88;;;;;;;10.37;43.98;101583.78;5072301;28;20041;-68
2021/03/20 08:29:08;;;;;;;14.27;8.82;;;;;;;10.45;43.92;101578.22;5064080;28;20044;-68
2021/03/20 08:31:45;;;;;;;15.15;9.07;;;;;;;10.55;43.64;101581.28;5054388;28;20044;-64
2021/03/20 08:34:17;;;;;;;11.57;7.40;;;;;;;10.61;43.29;101586.28;5060528;28;20045;-67
2021/03/20 08:37:04;;;;;;;11.02;6.53;;;;;;;10.69;42.71;101583.31;5054097;28;20037;-71
2021/03/20 08:40:07;;;;;;;7.32;5.68;;;;;;;10.78;41.73;101585.56;5052277;28;20053;-63
2021/03/20 08:43:01;;;;;;;7.65;5.05;;;;;;;10.91;40.84;101585.88;5059601;28;20056;-65
2021/03/20 08:45:50;;;;;;;11.30;5.10;;;;;;;11.06;40.20;101585.16;5067909;28;20051;-64
2021/03/20 08:48:22;;;;;;;7.18;4.45;;;;;;;11.18;39.47;101581.13;5060795;28;20084;-63
2021/03/20 08:51:13;;;;;;;7.10;5.05;;;;;;;11.30;38.66;101589.38;5092182;28;20126;-64
2021/03/20 08:53:49;;;;;;;8.10;5.25;;;;;;;11.43;38.24;101588.72;5089814;28;20518;-65
2021/03/20 08:56:24;;;;;;;7.72;4.32;;;;;;;11.60;38.03;101589.72;5103733;28;20514;-65
2021/03/20 08:58:58;;;;;;;4.88;3.53;;;;;;;11.75;36.93;101585.50;5095733;28;20044;-64
2021/03/20 09:01:38;;;;;;;12.70;3.78;;;;;;;11.90;35.75;101583.91;5111898;28;20044;-62
2021/03/20 09:04:23;;;;;;;6.63;4.47;;;;;;;12.03;35.39;101577.16;5111085;28;20048;-64
2021/03/20 09:07:20;;;;;;;7.18;3.78;;;;;;;12.20;34.98;101578.09;5112213;28;20505;-68
2021/03/20 09:09:53;;;;;;;5.57;3.80;;;;;;;12.39;34.78;101570.13;5112349;28;20050;-64
2021/03/20 09:12:28;;;;;;;5.32;3.65;;;;;;;12.52;34.03;101571.19;5099464;28;20503;-64
2021/03/20 09:14:54;;;;;;;5.70;3.47;;;;;;;12.67;33.90;101568.69;5115708;28;20487;-65
2021/03/20 09:17:33;;;;;;;5.78;4.03;;;;;;;12.80;33.67;101575.03;5115262;27;20105;-65
2021/03/20 09:20:26;;;;;;;5.32;3.53;;;;;;;12.97;33.32;101571.50;5110559;28;20096;-69
2021/03/20 09:22:52;;;;;;;10.55;3.70;;;;;;;13.13;33.00;101576.78;5105118;28;20446;-67
2021/03/20 09:25:32;;;;;;;5.25;3.70;;;;;;;13.26;32.46;101565.59;5096601;28;20051;-64
2021/03/20 09:28:16;;;;;;;7.15;4.20;;;;;;;13.38;32.19;101572.84;5095152;28;20059;-66
2021/03/20 09:30:57;;;;;;;6.03;4.53;;;;;;;13.53;31.87;101573.78;5102611;28;20487;-73
2021/03/20 09:33:27;;;;;;;8.13;4.47;;;;;;;13.65;31.39;101562.56;5109868;28;20465;-66
2021/03/20 09:35:54;;;;;;;8.55;5.20;;;;;;;13.79;31.17;101563.53;5104297;28;20139;-73
2021/03/20 09:38:43;;;;;;;9.32;5.00;;;;;;;13.91;30.68;101564.63;5110667;28;20043;-65
2021/03/20 09:41:15;;;;;;;7.60;4.88;;;;;;;14.04;31.85;101560.34;5110218;28;20051;-66
2021/03/20 09:44:05;;;;;;;7.60;4.90;;;;;;;14.20;31.65;101558.50;5097665;28;20130;-70
2021/03/20 09:46:41;;;;;;;8.32;4.68;;;;;;;14.38;30.89;101561.00;5110790;28;20049;-75
2021/03/20 09:49:08;;;;;;;5.40;3.90;;;;;;;14.51;30.33;101558.47;5106359;28;20098;-70
2021/03/20 09:51:50;;;;;;;7.68;4.78;;;;;;;14.65;29.36;101558.53;5090798;28;20347;-68
2021/03/20 09:54:24;;;;;;;5.95;4.25;;;;;;;14.78;28.95;101558.63;5092648;28;20324;-69
2021/03/20 09:56:55;;;;;;;6.40;4.07;;;;;;;14.92;28.49;101548.97;5092471;28;20424;-67
2021/03/20 09:59:27;;;;;;;7.10;3.88;;;;;;;15.04;28.05;101561.44;5109791;28;20043;-69
2021/03/20 10:02:01;;;;;;;7.15;3.90;;;;;;;15.15;27.80;101550.19;5107559;28;20097;-68
2021/03/20 10:04:51;;;;;;;7.90;4.82;;;;;;;15.28;27.34;101555.56;5110337;28;20131;-68
2021/03/20 10:07:29;;;;;;;9.48;4.30;;;;;;;15.42;27.19;101558.16;5105849;28;20047;-71
2021/03/20 10:10:09;;;;;;;39.30;5.00;;;;;;;15.54;26.71;101553.91;5100456;28;20044;-71
2021/03/20 10:12:45;;;;;;;5.13;3.50;;;;;;;15.63;26.54;101542.69;5101237;28;20048;-71
2021/03/20 10:18:06;;;;;;;5.32;4.20;;;;;;;15.88;26.11;101541.09;5089970;28;19924;-72
2021/03/20 10:20:41;;;;;;;9.40;4.55;;;;;;;15.98;25.91;101539.53;5090653;28;20063;-70
2021/03/20 10:23:44;;;;;;;5.15;4.13;;;;;;;16.11;25.72;101538.72;5094058;28;20043;-72
2021/03/20 10:26:15;;;;;;;5.72;3.97;;;;;;;16.24;25.15;101536.94;5104890;28;20134;-70
2021/03/20 10:28:45;;;;;;;6.10;4.00;;;;;;;16.41;25.29;101534.94;5090623;28;20056;-69
2021/03/20 10:31:14;;;;;;;6.05;4.22;;;;;;;16.54;25.06;101535.78;5090724;28;20047;-72
2021/03/20 10:33:45;;;;;;;6.35;4.50;;;;;;;16.64;24.91;101531.53;5088576;28;20075;-72
2021/03/20 10:36:14;;;;;;;35.45;19.33;;;;;;;16.75;25.44;101538.75;5089534;28;20500;-67
2021/03/20 10:38:45;;;;;;;33.03;19.13;;;;;;;16.90;28.52;101535.97;5101496;28;20040;-71
2021/03/20 10:41:20;;;;;;;19.00;13.20;;;;;;;17.08;32.35;101528.56;5106997;28;20490;-65
2021/03/20 10:44:00;;;;;;;7.07;4.57;;;;;;;17.20;31.87;101538.25;5106310;28;20044;-67
2021/03/20 10:46:47;;;;;;;6.60;4.40;;;;;;;17.29;28.44;101534.09;5101063;28;20044;-68
2021/03/20 10:49:23;;;;;;;6.22;4.45;;;;;;;17.36;26.40;101535.34;5093579;28;20083;-68
2021/03/20 10:51:51;;;;;;;;;;;;;;;17.42;24.82;101521.63;5100851;28;20040;-70
2021/03/20 10:54:32;;;;;;;5.07;3.75;;;;;;;17.49;23.94;101515.88;5091945;28;19923;-71
2021/03/20 10:57:09;;;;;;;6.32;4.03;;;;;;;17.53;22.81;101514.69;5097258;28;20448;-69
2021/03/20 10:59:40;;;;;;;9.35;3.60;;;;;;;17.67;22.53;101505.72;5100414;28;20063;-68
2021/03/20 11:02:29;;;;;;;7.43;4.18;;;;;;;17.83;22.65;101511.56;5095002;28;20043;-69
2021/03/20 11:05:33;;;;;;;4.72;3.70;;;;;;;18.03;22.18;101503.91;5104217;28;20051;-68
2021/03/20 11:08:24;;;;;;;5.55;3.88;;;;;;;18.00;22.07;101506.81;5064189;28;20044;-69
2021/03/20 11:11:07;;;;;;;4.57;3.60;;;;;;;18.18;21.71;101497.44;5106721;28;20043;-70
2021/03/20 11:13:44;;;;;;;4.80;3.80;;;;;;;18.30;21.71;101500.09;5088757;28;20138;-72
2021/03/20 11:16:18;;;;;;;4.45;3.40;;;;;;;18.32;22.05;101499.03;5097280;28;20044;-69
2021/03/20 11:18:50;;;;;;;4.78;2.95;;;;;;;18.36;21.09;101496.97;5094471;28;20093;-75
2021/03/20 11:21:24;;;;;;;3.70;3.30;;;;;;;18.46;20.69;101489.97;5100487;28;20047;-72
2021/03/20 11:24:07;;;;;;;3.90;3.25;;;;;;;18.51;20.48;101485.16;5099664;28;20051;-71
2021/03/20 11:26:45;;;;;;;4.38;3.38;;;;;;;18.58;20.23;101494.31;5088662;28;20044;-74
2021/03/20 11:29:18;;;;;;;3.85;3.40;;;;;;;18.56;19.90;101480.31;5088067;28;20093;-72
2021/03/20 11:31:59;;;;;;;4.63;3.50;;;;;;;18.49;20.16;101473.78;5091012;28;20050;-71
2021/03/20 11:34:33;;;;;;;5.95;3.45;;;;;;;18.71;19.68;101472.91;5089235;28;20389;-69
2021/03/20 11:37:01;;;;;;;3.72;3.03;;;;;;;18.87;19.93;101469.06;5102508;28;20063;-71
2021/03/20 11:39:28;;;;;;;4.55;3.72;;;;;;;19.01;19.49;101470.63;5100780;28;20046;-69
2021/03/20 11:42:15;;;;;;;4.30;3.22;;;;;;;18.90;19.71;101469.66;5101741;28;20075;-71
2021/03/20 11:44:46;;;;;;;4.72;3.03;;;;;;;18.28;19.78;101465.69;5091935;28;20059;-71
2021/03/20 11:47:32;;;;;;;4.43;3.22;;;;;;;17.86;19.71;101463.53;5102476;28;20420;-70
2021/03/20 11:50:01;;;;;;;6.13;3.20;;;;;;;17.52;19.90;101470.53;5110241;27;20052;-72
2021/03/20 11:52:52;;;;;;;17.95;11.15;;;;;;;17.10;22.02;101468.28;5107953;28;20143;-68
2021/03/20 11:55:27;;;;;;;19.48;9.95;;;;;;;16.96;28.11;101477.22;5097441;28;20048;-72
2021/03/20 11:58:05;;;;;;;14.55;9.07;;;;;;;16.90;33.03;101483.81;5109424;28;20070;-71
2021/03/20 12:00:34;;;;;;;15.30;9.60;;;;;;;16.86;35.44;101478.81;5106161;28;20425;-73
2021/03/20 12:03:23;;;;;;;12.45;8.15;;;;;;;16.81;36.85;101476.50;5103898;28;20039;-73
2021/03/20 12:05:52;;;;;;;11.45;7.20;;;;;;;16.73;37.39;101466.44;5104930;28;20044;-66